This is the latest recevied weather packets stored in our database for station/object LA1HSA-13. If no packets are shown the sender has not sent any weather packets the latest 10 day(s).
| Time | Temp. | Humidity | Pressure | Rain* | Wind** | Luminosity | Snow |
|---|---|---|---|---|---|---|---|
| 1777270204 | 3.33° C | 60% | 1027.2 hPa | 0 mm | - | - | - |
| 1777269603 | 2.78° C | 60% | 1027.1 hPa | 0 mm | - | - | - |
| 1777269003 | 2.78° C | 59% | 1027.2 hPa | 0 mm | - | - | - |
| 1777268403 | 2.22° C | 63% | 1027.1 hPa | 0 mm | - | - | - |
| 1777267803 | 1.67° C | 69% | 1027 hPa | 0 mm | - | - | - |
| 1777267204 | 2.22° C | 65% | 1027 hPa | 0 mm | - | - | - |
| 1777266603 | 1.11° C | 67% | 1026.8 hPa | 0 mm | - | - | - |
| 1777266004 | 1.11° C | 67% | 1026.5 hPa | 0 mm | - | - | - |
| 1777265403 | -0.56° C | 76% | 1026.8 hPa | 0 mm | - | - | - |
| 1777264803 | -0.56° C | 77% | 1026.5 hPa | 0 mm | - | - | - |
| 1777264204 | -1.11° C | 78% | 1026.5 hPa | 0 mm | - | - | - |
| 1777263603 | -1.11° C | 78% | 1026.4 hPa | 0 mm | - | - | - |
| 1777263003 | -1.67° C | 78% | 1026.3 hPa | 0 mm | - | - | - |
| 1777262403 | -1.67° C | 78% | 1026 hPa | 0 mm | - | - | - |
| 1777261803 | -1.67° C | 79% | 1026 hPa | 0 mm | - | - | - |
| 1777261203 | -1.67° C | 79% | 1026.1 hPa | 0 mm | - | - | - |
| 1777260603 | -1.11° C | 76% | 1025.9 hPa | 0 mm | - | - | - |
| 1777260004 | -1.11° C | 75% | 1026 hPa | 0 mm | - | - | - |
| 1777259403 | 0° C | 71% | 1025.9 hPa | 0 mm | - | - | - |
| 1777258804 | 0° C | 70% | 1026 hPa | 0 mm | - | - | - |
| 1777258203 | 0° C | 70% | 1025.8 hPa | 0 mm | - | - | - |
| 1777257603 | 0.56° C | 68% | 1025.7 hPa | 0 mm | - | - | - |
| 1777257004 | 0.56° C | 69% | 1025.6 hPa | 0 mm | - | - | - |
| 1777256403 | 1.67° C | 65% | 1026 hPa | 0 mm | - | - | - |
| 1777255803 | 1.11° C | 65% | 1025.7 hPa | 0 mm | - | - | - |
* Rain latest hour (hover to see other rain measurements)
** Current wind speed in m/s (hover to see current wind gust speed)